VAAH Airport Information

Runway Information
Runway 05 Length 11447 ft width 150 ft
Elevation 180 ft Threshold 0 ft Heading 45
Runway 23 Length 11447 ft Width 150 ft
Elevation 189 ft Threshold 0 ft Heading 225
Airport Frequencies
Type ACC Name RADAR Frequency 123.75 MHZ
Type APP Name APPROACH Frequency 119.8 MHZ
Type ATIS Name ATIS Frequency 126.8 MHZ
Type TWR Name TOWER Frequency 119.6 MHZ
Airport Navaids
Type VOR-DME Name Ahmedabad Frequency 113100 KHZ
Type NDB Name Ahmedabad Frequency 215 KHZ
Airport Weather Information & NOTAM
ADDS - METARS form results

(0921 UTC 18 July 2019)
Data provider http://aviationweather.gov/metar/data/
 
METAR text: VAAH 180900Z 21004KT 5000 FU FEW020 SCT025 37/23 Q1002 NOSIG
Conditions at: VAAH (AHMADABAD , IN) observed 0900 UTC 18 July 2019
Temperature: 37.0°C (99°F)
Dewpoint: 23.0°C (73°F) [RH = 45%]
Pressure (altimeter): 29.59 inches Hg (1002.0 mb)
Winds: from the SSW (210 degrees) at 5 MPH (4 knots; 2.1 m/s)
Visibility: 3 miles ( 5 km)
Ceiling: at least 12,000 feet AGL
Clouds: few clouds at 2000 feet AGL
scattered clouds at 2500 feet AGL
Weather: FU  (smoke)

METAR text: VAAH 180830Z 26003KT 5000 FU FEW020 SCT025 37/22 Q1002 NOSIG
Conditions at: VAAH (AHMADABAD , IN) observed 0830 UTC 18 July 2019
Temperature: 37.0°C (99°F)
Dewpoint: 22.0°C (72°F) [RH = 42%]
Pressure (altimeter): 29.59 inches Hg (1002.0 mb)
Winds: from the W (260 degrees) at 3 MPH (3 knots; 1.5 m/s)
Visibility: 3 miles ( 5 km)
Ceiling: at least 12,000 feet AGL
Clouds: few clouds at 2000 feet AGL
scattered clouds at 2500 feet AGL
Weather: FU  (smoke)

Forecast for: VAAH (AHMADABAD , IN)
Text: TAF VAAH 180800Z 1809/1818 23006KT 6000 FEW020 SCT025
Forecast period: 0900 to 1300 UTC 18 July 2019
Forecast type: FROM: standard forecast or significant change
Winds: from the SW (230 degrees) at 7 MPH (6 knots; 3.1 m/s)
Visibility: 4 miles (6 km)
Ceiling: at least 12,000 feet AGL
Clouds: few clouds at 2000 feet AGL
scattered clouds at 2500 feet AGL
Weather: no significant weather forecast for this period
Text: BECMG 1813/1815 18010KT 4000 FU FEW020
Forecast period: 1300 to 1800 UTC 18 July 2019
Forecast type: BECOMING: Conditions expected to become as follows by 1500 UTC 18 July 2019
Winds: from the S (180 degrees) at 12 MPH (10 knots; 5.1 m/s)
Visibility: 2.49 miles (4.01 km)
Ceiling: at least 12,000 feet AGL
Clouds: few clouds at 2000 feet AGL
Weather: FU  (smoke)